Time,TemperatureF,DewpointF,PressureIn,WindDirection,WindDirectionDegrees,WindSpeedMPH,WindSpeedGustMPH,Humidity,HourlyPrecipIn,Conditions,Clouds,dailyrainin,SoftwareType,DateUTC
2013-02-05 00:00:00,29.1,27.3,29.88,SSE,161,0.0,0.0,93,0.00,,,0.00,Wunderground v.1.15,2013-02-05 05:00:00,
2013-02-05 00:05:00,29.1,27.3,29.89,SSE,161,0.0,0.0,93,0.00,,,0.00,Wunderground v.1.15,2013-02-05 05:05:00,
2013-02-05 00:10:00,29.3,27.5,29.88,SSE,161,0.0,1.0,93,0.00,,,0.00,Wunderground v.1.15,2013-02-05 05:10:00,
2013-02-05 00:20:00,29.1,27.3,29.89,SSE,161,1.0,1.0,93,0.00,,,0.00,Wunderground v.1.15,2013-02-05 05:20:00,
2013-02-05 00:25:00,29.3,27.5,29.89,SSE,161,2.0,2.0,93,0.00,,,0.00,Wunderground v.1.15,2013-02-05 05:25:00,
2013-02-05 00:30:00,29.3,27.3,29.89,SSE,161,1.0,1.0,92,0.00,,,0.00,Wunderground v.1.15,2013-02-05 05:30:00,
2013-02-05 00:40:00,29.4,27.4,29.89,SSE,161,1.0,1.0,92,0.00,,,0.00,Wunderground v.1.15,2013-02-05 05:40:00,
2013-02-05 00:55:00,29.6,27.6,29.89,SSE,158,1.0,1.0,92,0.00,,,0.00,Wunderground v.1.15,2013-02-05 05:55:00,
2013-02-05 01:00:00,29.4,27.4,29.88,SSE,159,1.0,1.0,92,0.00,,,0.00,Wunderground v.1.15,2013-02-05 06:00:00,
2013-02-05 01:11:00,29.4,27.4,29.87,SSE,159,0.0,0.0,92,0.00,,,0.00,Wunderground v.1.15,2013-02-05 06:11:00,
2013-02-05 01:20:00,29.3,27.3,29.87,SSE,159,0.0,1.0,92,0.00,,,0.00,Wunderground v.1.15,2013-02-05 06:20:00,
2013-02-05 01:30:00,29.1,27.3,29.87,SSE,159,1.0,1.0,93,0.00,,,0.00,Wunderground v.1.15,2013-02-05 06:30:00,
2013-02-05 01:45:00,29.1,27.3,29.87,SSE,158,1.0,1.0,93,0.00,,,0.00,Wunderground v.1.15,2013-02-05 06:45:00,
2013-02-05 01:55:00,29.0,27.2,29.87,SSE,158,1.0,1.0,93,0.00,,,0.00,Wunderground v.1.15,2013-02-05 06:55:00,
2013-02-05 02:05:00,29.0,27.2,29.87,SSE,158,1.0,2.0,93,0.00,,,0.00,Wunderground v.1.15,2013-02-05 07:05:00,
2013-02-05 02:10:00,29.0,27.2,29.86,SSE,159,1.0,2.0,93,0.00,,,0.00,Wunderground v.1.15,2013-02-05 07:10:00,
2013-02-05 02:15:00,29.0,27.2,29.86,SSE,158,0.0,0.0,93,0.00,,,0.00,Wunderground v.1.15,2013-02-05 07:15:00,
2013-02-05 02:25:00,29.0,27.5,29.86,SSE,159,0.0,0.0,94,0.00,,,0.00,Wunderground v.1.15,2013-02-05 07:25:00,
2013-02-05 02:35:00,29.0,27.5,29.86,SSE,159,2.0,3.0,94,0.00,,,0.00,Wunderground v.1.15,2013-02-05 07:35:00,
2013-02-05 02:40:00,29.0,27.5,29.86,SSE,158,1.0,1.0,94,0.00,,,0.00,Wunderground v.1.15,2013-02-05 07:40:00,
2013-02-05 02:50:00,29.1,27.6,29.86,East,101,2.0,5.0,94,0.00,,,0.00,Wunderground v.1.15,2013-02-05 07:50:00,
2013-02-05 03:00:00,29.1,27.6,29.86,East,84,1.0,1.0,94,0.00,,,0.00,Wunderground v.1.15,2013-02-05 08:00:00,
2013-02-05 03:15:00,29.1,27.3,29.86,ENE,70,1.0,1.0,93,0.00,,,0.00,Wunderground v.1.15,2013-02-05 08:15:00,
2013-02-05 03:25:00,29.3,27.5,29.86,ENE,70,1.0,1.0,93,0.00,,,0.00,Wunderground v.1.15,2013-02-05 08:25:00,
2013-02-05 03:40:00,29.4,27.6,29.86,ENE,70,1.0,1.0,93,0.00,,,0.00,Wunderground v.1.15,2013-02-05 08:40:00,
2013-02-05 03:45:00,29.4,27.6,29.86,ENE,70,1.0,1.0,93,0.00,,,0.00,Wunderground v.1.15,2013-02-05 08:45:00,
2013-02-05 03:55:00,29.4,27.6,29.86,ENE,70,2.0,2.0,93,0.00,,,0.00,Wunderground v.1.15,2013-02-05 08:55:00,
2013-02-05 04:00:00,29.4,27.6,29.86,NE,52,2.0,2.0,93,0.00,,,0.00,Wunderground v.1.15,2013-02-05 09:00:00,
2013-02-05 04:20:00,29.6,27.8,29.86,NNE,17,1.0,1.0,93,0.00,,,0.00,Wunderground v.1.15,2013-02-05 09:20:00,
2013-02-05 04:35:00,29.6,27.6,29.86,NNE,17,2.0,2.0,92,0.00,,,0.00,Wunderground v.1.15,2013-02-05 09:35:00,
2013-02-05 04:40:00,29.6,27.6,29.87,NNW,346,2.0,6.0,92,0.00,,,0.00,Wunderground v.1.15,2013-02-05 09:40:00,
2013-02-05 04:45:00,29.6,27.6,29.86,NNW,346,3.0,3.0,92,0.00,,,0.00,Wunderground v.1.15,2013-02-05 09:45:00,
2013-02-05 04:50:00,29.7,27.7,29.87,NNW,346,3.0,3.0,92,0.00,,,0.00,Wunderground v.1.15,2013-02-05 09:50:00,
2013-02-05 05:00:00,29.6,27.6,29.87,NNW,346,3.0,3.0,92,0.00,,,0.00,Wunderground v.1.15,2013-02-05 10:00:00,
2013-02-05 05:05:00,29.6,27.6,29.87,NNW,346,3.0,5.0,92,0.00,,,0.00,Wunderground v.1.15,2013-02-05 10:05:00,
2013-02-05 05:15:00,29.6,27.6,29.87,North,350,4.0,7.0,92,0.00,,,0.00,Wunderground v.1.15,2013-02-05 10:15:00,
2013-02-05 05:35:00,29.6,27.6,29.88,North,360,5.0,5.0,92,0.00,,,0.00,Wunderground v.1.15,2013-02-05 10:35:00,
2013-02-05 05:45:00,29.4,27.4,29.88,NNE,22,5.0,6.0,92,0.00,,,0.00,Wunderground v.1.15,2013-02-05 10:45:00,
2013-02-05 05:50:00,29.4,27.4,29.88,North,355,5.0,6.0,92,0.00,,,0.00,Wunderground v.1.15,2013-02-05 10:50:00,
2013-02-05 06:00:00,29.4,27.4,29.88,North,355,4.0,4.0,92,0.00,,,0.00,Wunderground v.1.15,2013-02-05 11:00:00,
2013-02-05 06:10:00,29.4,27.4,29.88,North,355,3.0,4.0,92,0.00,,,0.00,Wunderground v.1.15,2013-02-05 11:10:00,
2013-02-05 06:15:00,29.4,27.4,29.88,North,355,3.0,7.0,92,0.00,,,0.00,Wunderground v.1.15,2013-02-05 11:15:00,
2013-02-05 06:25:00,29.4,27.4,29.89,North,355,2.0,3.0,92,0.00,,,0.00,Wunderground v.1.15,2013-02-05 11:25:00,
2013-02-05 06:35:00,29.4,27.4,29.89,North,355,1.0,1.0,92,0.00,,,0.00,Wunderground v.1.15,2013-02-05 11:35:00,
2013-02-05 06:45:00,29.6,27.6,29.89,North,355,1.0,2.0,92,0.00,,,0.00,Wunderground v.1.15,2013-02-05 11:45:00,
2013-02-05 06:55:00,29.6,27.6,29.90,North,355,1.0,1.0,92,0.00,,,0.00,Wunderground v.1.15,2013-02-05 11:55:00,
2013-02-05 07:00:00,29.7,27.7,29.90,North,355,1.0,2.0,92,0.00,,,0.00,Wunderground v.1.15,2013-02-05 12:00:00,
2013-02-05 07:10:00,29.7,27.7,29.90,North,355,1.0,2.0,92,0.00,,,0.00,Wunderground v.1.15,2013-02-05 12:10:00,
2013-02-05 07:20:00,29.9,27.6,29.90,North,355,1.0,5.0,91,0.00,,,0.00,Wunderground v.1.15,2013-02-05 12:20:00,
2013-02-05 07:35:00,29.6,27.6,29.90,North,355,2.0,2.0,92,0.00,,,0.00,Wunderground v.1.15,2013-02-05 12:35:00,
2013-02-05 07:45:00,29.7,27.7,29.90,North,355,1.0,2.0,92,0.00,,,0.00,Wunderground v.1.15,2013-02-05 12:45:00,
2013-02-05 08:00:00,29.7,27.7,29.91,North,355,2.0,2.0,92,0.00,,,0.00,Wunderground v.1.15,2013-02-05 13:00:00,
2013-02-05 08:10:00,29.7,27.9,29.91,North,355,1.0,1.0,93,0.00,,,0.00,Wunderground v.1.15,2013-02-05 13:10:00,
2013-02-05 08:15:00,29.9,28.1,29.91,North,355,1.0,1.0,93,0.00,,,0.00,Wunderground v.1.15,2013-02-05 13:15:00,
2013-02-05 08:25:00,30.0,28.2,29.92,North,355,1.0,2.0,93,0.00,,,0.00,Wunderground v.1.15,2013-02-05 13:25:00,
2013-02-05 08:35:00,30.2,28.4,29.92,North,355,2.0,5.0,93,0.00,,,0.00,Wunderground v.1.15,2013-02-05 13:35:00,
2013-02-05 08:40:00,30.2,28.2,29.92,North,355,2.0,2.0,92,0.00,,,0.00,Wunderground v.1.15,2013-02-05 13:40:00,
2013-02-05 08:50:00,30.3,28.3,29.92,North,355,2.0,2.0,92,0.00,,,0.00,Wunderground v.1.15,2013-02-05 13:50:00,
2013-02-05 08:55:00,30.3,28.3,29.92,North,355,2.0,5.0,92,0.00,,,0.00,Wunderground v.1.15,2013-02-05 13:55:00,
2013-02-05 09:05:00,30.5,28.5,29.92,North,355,4.0,4.0,92,0.00,,,0.00,Wunderground v.1.15,2013-02-05 14:05:00,
2013-02-05 09:10:00,30.8,28.8,29.92,North,355,2.0,2.0,92,0.00,,,0.00,Wunderground v.1.15,2013-02-05 14:10:00,
2013-02-05 09:20:00,30.9,28.6,29.91,North,355,2.0,2.0,91,0.00,,,0.00,Wunderground v.1.15,2013-02-05 14:20:00,
2013-02-05 09:30:00,31.4,29.1,29.92,North,355,1.0,1.0,91,0.00,,,0.00,Wunderground v.1.15,2013-02-05 14:30:00,
2013-02-05 09:40:00,31.7,29.4,29.92,North,355,0.0,0.0,91,0.00,,,0.00,Wunderground v.1.15,2013-02-05 14:40:00,
2013-02-05 09:50:00,31.9,29.0,29.93,North,355,0.0,0.0,89,0.00,,,0.00,Wunderground v.1.15,2013-02-05 14:50:00,
2013-02-05 10:00:00,32.1,28.9,29.93,North,355,1.0,2.0,88,0.00,,,0.00,Wunderground v.1.15,2013-02-05 15:00:00,
2013-02-05 10:05:00,32.2,29.3,29.93,North,355,2.0,6.0,89,0.00,,,0.00,Wunderground v.1.15,2013-02-05 15:05:00,
2013-02-05 10:10:00,32.1,29.2,29.93,North,355,3.0,5.0,89,0.00,,,0.00,Wunderground v.1.15,2013-02-05 15:10:00,
2013-02-05 10:20:00,32.5,29.6,29.93,North,355,1.0,2.0,89,0.00,,,0.00,Wunderground v.1.15,2013-02-05 15:20:00,
2013-02-05 10:25:00,32.7,29.5,29.93,NW,311,3.0,3.0,88,0.00,,,0.00,Wunderground v.1.15,2013-02-05 15:25:00,
2013-02-05 10:35:00,32.7,29.5,29.93,NW,311,3.0,3.0,88,0.00,,,0.00,Wunderground v.1.15,2013-02-05 15:35:00,
2013-02-05 10:45:00,32.7,29.5,29.93,NW,311,2.0,2.0,88,0.00,,,0.00,Wunderground v.1.15,2013-02-05 15:45:00,
2013-02-05 10:50:00,32.8,29.6,29.93,NW,311,1.0,2.0,88,0.00,,,0.00,Wunderground v.1.15,2013-02-05 15:50:00,
2013-02-05 11:00:00,32.8,29.6,29.92,NW,311,1.0,2.0,88,0.00,,,0.00,Wunderground v.1.15,2013-02-05 16:00:00,
2013-02-05 11:05:00,33.1,29.9,29.92,NW,311,1.0,2.0,88,0.00,,,0.00,Wunderground v.1.15,2013-02-05 16:05:00,
2013-02-05 11:20:00,34.2,30.7,29.91,NW,311,1.0,1.0,87,0.00,,,0.00,Wunderground v.1.15,2013-02-05 16:20:00,
2013-02-05 11:30:00,35.0,31.2,29.91,NE,46,2.0,5.0,86,0.00,,,0.00,Wunderground v.1.15,2013-02-05 16:30:00,
2013-02-05 11:55:00,35.2,30.6,29.91,NNW,348,1.0,1.0,83,0.00,,,0.00,Wunderground v.1.15,2013-02-05 16:55:00,
2013-02-05 12:05:00,35.0,30.4,29.90,NNW,348,1.0,1.0,83,0.00,,,0.00,Wunderground v.1.15,2013-02-05 17:05:00,
2013-02-05 12:10:00,35.0,30.4,29.90,NNW,348,1.0,2.0,83,0.00,,,0.00,Wunderground v.1.15,2013-02-05 17:10:00,
2013-02-05 12:15:00,35.2,30.6,29.89,NNW,348,0.0,0.0,83,0.00,,,0.00,Wunderground v.1.15,2013-02-05 17:15:00,
2013-02-05 12:25:00,35.5,30.8,29.88,NNW,348,0.0,0.0,83,0.00,,,0.00,Wunderground v.1.15,2013-02-05 17:25:00,
2013-02-05 12:35:00,35.3,30.4,29.88,NNW,348,0.0,0.0,82,0.00,,,0.00,Wunderground v.1.15,2013-02-05 17:35:00,
2013-02-05 12:40:00,35.2,30.3,29.88,NNW,348,1.0,1.0,82,0.00,,,0.00,Wunderground v.1.15,2013-02-05 17:40:00,
2013-02-05 12:50:00,35.8,31.1,29.87,NNW,348,1.0,1.0,83,0.00,,,0.00,Wunderground v.1.15,2013-02-05 17:50:00,
2013-02-05 12:55:00,35.8,31.1,29.87,NNW,348,1.0,1.0,83,0.00,,,0.00,Wunderground v.1.15,2013-02-05 17:55:00,
2013-02-05 13:00:00,35.6,30.6,29.87,NNW,348,1.0,2.0,82,0.00,,,0.00,Wunderground v.1.15,2013-02-05 18:00:00,
2013-02-05 13:10:00,35.8,31.1,29.87,NNW,348,1.0,2.0,83,0.00,,,0.00,Wunderground v.1.15,2013-02-05 18:10:00,
2013-02-05 13:20:00,35.6,30.6,29.86,NNW,328,2.0,2.0,82,0.00,,,0.00,Wunderground v.1.15,2013-02-05 18:20:00,
2013-02-05 13:25:00,35.3,30.9,29.86,NNW,328,3.0,3.0,84,0.00,,,0.00,Wunderground v.1.15,2013-02-05 18:25:00,
2013-02-05 13:35:00,34.9,31.1,29.86,WNW,293,2.0,3.0,86,0.00,,,0.00,Wunderground v.1.15,2013-02-05 18:35:00,
2013-02-05 13:40:00,34.8,31.0,29.86,WNW,293,2.0,3.0,86,0.00,,,0.00,Wunderground v.1.15,2013-02-05 18:40:00,
2013-02-05 13:50:00,34.8,31.3,29.85,WNW,293,2.0,3.0,87,0.00,,,0.00,Wunderground v.1.15,2013-02-05 18:50:00,
2013-02-05 14:00:00,34.6,30.8,29.85,WNW,293,2.0,2.0,86,0.00,,,0.00,Wunderground v.1.15,2013-02-05 19:00:00,
2013-02-05 14:10:00,34.5,30.7,29.86,WNW,293,2.0,2.0,86,0.00,,,0.00,Wunderground v.1.15,2013-02-05 19:10:00,
2013-02-05 14:20:00,34.3,30.5,29.86,NW,321,3.0,3.0,86,0.00,,,0.00,Wunderground v.1.15,2013-02-05 19:20:00,
2013-02-05 14:25:00,34.5,31.0,29.86,NW,321,4.0,4.0,87,0.00,,,0.00,Wunderground v.1.15,2013-02-05 19:25:00,
2013-02-05 14:35:00,34.2,30.7,29.86,NW,321,2.0,3.0,87,0.00,,,0.00,Wunderground v.1.15,2013-02-05 19:35:00,
2013-02-05 14:40:00,34.2,30.7,29.85,NW,321,2.0,2.0,87,0.00,,,0.00,Wunderground v.1.15,2013-02-05 19:40:00,
2013-02-05 14:50:00,34.2,31.0,29.85,NW,321,0.0,2.0,88,0.00,,,0.00,Wunderground v.1.15,2013-02-05 19:50:00,
2013-02-05 15:00:00,34.0,30.8,29.85,NW,321,1.0,2.0,88,0.00,,,0.00,Wunderground v.1.15,2013-02-05 20:00:00,
2013-02-05 15:10:00,34.2,31.0,29.86,NW,321,1.0,2.0,88,0.00,,,0.00,Wunderground v.1.15,2013-02-05 20:10:00,
2013-02-05 15:15:00,34.0,30.8,29.86,NW,321,1.0,2.0,88,0.00,,,0.01,Wunderground v.1.15,2013-02-05 20:15:00,
2013-02-05 15:20:00,33.9,31.0,29.86,NW,321,1.0,1.0,89,0.00,,,0.01,Wunderground v.1.15,2013-02-05 20:20:00,
2013-02-05 15:25:00,33.9,31.3,29.86,NW,321,1.0,1.0,90,0.06,,,0.02,Wunderground v.1.15,2013-02-05 20:25:00,
2013-02-05 15:35:00,33.6,31.3,29.86,NW,321,0.0,0.0,91,0.05,,,0.02,Wunderground v.1.15,2013-02-05 20:35:00,
2013-02-05 15:40:00,33.4,31.1,29.85,NW,321,0.0,0.0,91,0.04,,,0.02,Wunderground v.1.15,2013-02-05 20:40:00,
2013-02-05 15:50:00,33.4,31.3,29.86,NW,321,0.0,0.0,92,0.00,,,0.03,Wunderground v.1.15,2013-02-05 20:50:00,
2013-02-05 16:00:00,33.4,31.6,29.86,NW,321,0.0,0.0,93,0.00,,,0.03,Wunderground v.1.15,2013-02-05 21:00:00,
2013-02-05 16:10:00,33.9,32.1,29.86,NW,321,1.0,2.0,93,0.00,,,0.03,Wunderground v.1.15,2013-02-05 21:10:00,
2013-02-05 16:15:00,33.9,32.1,29.86,NW,321,1.0,1.0,93,0.00,,,0.03,Wunderground v.1.15,2013-02-05 21:15:00,
2013-02-05 16:20:00,34.0,31.9,29.86,NW,321,1.0,1.0,92,0.00,,,0.03,Wunderground v.1.15,2013-02-05 21:20:00,
2013-02-05 16:25:00,34.2,32.1,29.86,NW,321,1.0,2.0,92,0.00,,,0.03,Wunderground v.1.15,2013-02-05 21:25:00,
2013-02-05 16:35:00,34.2,32.1,29.86,NW,321,1.0,1.0,92,0.00,,,0.03,Wunderground v.1.15,2013-02-05 21:35:00,
2013-02-05 16:50:00,34.2,32.1,29.86,NW,321,1.0,1.0,92,0.00,,,0.03,Wunderground v.1.15,2013-02-05 21:50:00,
2013-02-05 16:55:00,34.2,32.1,29.87,NW,316,2.0,2.0,92,0.00,,,0.03,Wunderground v.1.15,2013-02-05 21:55:00,
2013-02-05 17:00:00,34.0,31.9,29.87,NW,316,1.0,1.0,92,0.00,,,0.03,Wunderground v.1.15,2013-02-05 22:00:00,
2013-02-05 17:15:00,33.9,31.6,29.87,NW,316,0.0,0.0,91,0.00,,,0.03,Wunderground v.1.15,2013-02-05 22:15:00,
2013-02-05 17:20:00,33.9,31.6,29.86,NW,316,0.0,0.0,91,0.00,,,0.03,Wunderground v.1.15,2013-02-05 22:20:00,
2013-02-05 17:30:00,33.7,31.6,29.86,NW,316,0.0,0.0,92,0.00,,,0.03,Wunderground v.1.15,2013-02-05 22:30:00,
2013-02-05 17:35:00,33.7,31.6,29.87,NW,316,0.0,0.0,92,0.00,,,0.03,Wunderground v.1.15,2013-02-05 22:35:00,
2013-02-05 17:40:00,33.4,31.3,29.86,NW,316,1.0,2.0,92,0.00,,,0.03,Wunderground v.1.15,2013-02-05 22:40:00,
2013-02-05 17:50:00,33.0,31.2,29.86,NW,316,1.0,2.0,93,0.00,,,0.03,Wunderground v.1.15,2013-02-05 22:50:00,
2013-02-05 17:55:00,33.0,31.2,29.86,NW,316,1.0,5.0,93,0.00,,,0.03,Wunderground v.1.15,2013-02-05 22:55:00,
2013-02-05 18:05:00,32.5,30.7,29.86,NW,316,1.0,1.0,93,0.00,,,0.03,Wunderground v.1.15,2013-02-05 23:05:00,
2013-02-05 18:10:00,32.4,30.9,29.87,NW,316,0.0,1.0,94,0.00,,,0.03,Wunderground v.1.15,2013-02-05 23:10:00,
2013-02-05 18:15:00,32.1,30.6,29.87,NW,316,0.0,0.0,94,0.00,,,0.03,Wunderground v.1.15,2013-02-05 23:15:00,
2013-02-05 18:25:00,31.7,30.2,29.87,NW,316,0.0,0.0,94,0.00,,,0.03,Wunderground v.1.15,2013-02-05 23:25:00,
2013-02-05 18:30:00,31.5,30.0,29.87,NW,316,0.0,1.0,94,0.00,,,0.03,Wunderground v.1.15,2013-02-05 23:30:00,
2013-02-05 18:40:00,31.2,29.7,29.88,NW,316,0.0,0.0,94,0.00,,,0.03,Wunderground v.1.15,2013-02-05 23:40:00,
2013-02-05 18:45:00,31.1,29.8,29.88,NW,316,0.0,1.0,95,0.00,,,0.03,Wunderground v.1.15,2013-02-05 23:45:00,
2013-02-05 18:55:00,30.9,29.6,29.88,NW,316,1.0,2.0,95,0.00,,,0.03,Wunderground v.1.15,2013-02-05 23:55:00,
2013-02-05 19:00:00,30.9,29.6,29.88,NW,316,1.0,1.0,95,0.00,,,0.03,Wunderground v.1.15,2013-02-06 00:00:00,
2013-02-05 19:10:00,30.9,29.6,29.88,NW,316,1.0,1.0,95,0.00,,,0.03,Wunderground v.1.15,2013-02-06 00:10:00,
2013-02-05 19:20:00,30.9,29.9,29.88,NW,316,1.0,1.0,96,0.00,,,0.03,Wunderground v.1.15,2013-02-06 00:20:00,
2013-02-05 19:25:00,30.8,29.8,29.88,NW,316,0.0,1.0,96,0.00,,,0.03,Wunderground v.1.15,2013-02-06 00:25:00,
2013-02-05 19:30:00,30.6,29.6,29.88,NW,316,0.0,0.0,96,0.00,,,0.03,Wunderground v.1.15,2013-02-06 00:30:00,
2013-02-05 19:40:00,30.3,29.3,29.89,NW,316,0.0,2.0,96,0.00,,,0.03,Wunderground v.1.15,2013-02-06 00:40:00,
2013-02-05 19:45:00,30.0,29.0,29.89,NW,316,0.0,0.0,96,0.00,,,0.03,Wunderground v.1.15,2013-02-06 00:45:00,
2013-02-05 19:50:00,29.9,28.9,29.89,NW,316,1.0,1.0,96,0.00,,,0.03,Wunderground v.1.15,2013-02-06 00:50:00,
2013-02-05 20:00:00,30.0,29.0,29.89,NW,316,0.0,1.0,96,0.00,,,0.03,Wunderground v.1.15,2013-02-06 01:00:00,
2013-02-05 20:05:00,30.2,29.2,29.89,NW,316,0.0,1.0,96,0.00,,,0.03,Wunderground v.1.15,2013-02-06 01:05:00,
2013-02-05 20:15:00,30.0,29.0,29.90,NW,316,0.0,1.0,96,0.00,,,0.03,Wunderground v.1.15,2013-02-06 01:15:00,
2013-02-05 20:25:00,29.7,28.7,29.90,NW,316,0.0,0.0,96,0.00,,,0.03,Wunderground v.1.15,2013-02-06 01:25:00,
2013-02-05 20:30:00,29.6,28.6,29.90,NW,316,0.0,0.0,96,0.00,,,0.03,Wunderground v.1.15,2013-02-06 01:30:00,
2013-02-05 20:45:00,29.1,28.1,29.91,NW,316,0.0,0.0,96,0.00,,,0.03,Wunderground v.1.15,2013-02-06 01:45:00,
2013-02-05 21:05:00,29.9,29.2,29.92,NW,316,1.0,1.0,97,0.00,,,0.03,Wunderground v.1.15,2013-02-06 02:05:00,
2013-02-05 21:10:00,30.0,29.3,29.92,NW,316,1.0,1.0,97,0.00,,,0.03,Wunderground v.1.15,2013-02-06 02:10:00,
2013-02-05 21:15:00,30.0,29.3,29.92,NW,316,1.0,1.0,97,0.00,,,0.03,Wunderground v.1.15,2013-02-06 02:15:00,
2013-02-05 21:25:00,30.3,29.6,29.93,NW,316,2.0,2.0,97,0.00,,,0.03,Wunderground v.1.15,2013-02-06 02:25:00,
2013-02-05 21:35:00,30.3,29.6,29.92,NW,316,0.0,0.0,97,0.00,,,0.03,Wunderground v.1.15,2013-02-06 02:35:00,
2013-02-05 21:50:00,30.2,29.5,29.93,NW,316,0.0,1.0,97,0.00,,,0.03,Wunderground v.1.15,2013-02-06 02:50:00,
2013-02-05 21:55:00,30.2,29.5,29.93,NW,316,0.0,1.0,97,0.00,,,0.03,Wunderground v.1.15,2013-02-06 02:55:00,
2013-02-05 22:05:00,30.0,29.3,29.93,NW,316,0.0,0.0,97,0.00,,,0.03,Wunderground v.1.15,2013-02-06 03:05:00,
2013-02-05 22:35:00,29.6,28.9,29.94,NW,316,0.0,0.0,97,0.00,,,0.03,Wunderground v.1.15,2013-02-06 03:35:00,
2013-02-05 22:45:00,29.3,28.6,29.94,NW,316,0.0,0.0,97,0.00,,,0.03,Wunderground v.1.15,2013-02-06 03:45:00,
2013-02-05 22:55:00,29.0,28.3,29.93,NW,316,1.0,1.0,97,0.00,,,0.03,Wunderground v.1.15,2013-02-06 03:55:00,
2013-02-05 23:05:00,28.7,28.0,29.94,NW,316,1.0,1.0,97,0.00,,,0.03,Wunderground v.1.15,2013-02-06 04:05:00,
2013-02-05 23:15:00,28.4,27.7,29.94,NW,316,0.0,0.0,97,0.00,,,0.03,Wunderground v.1.15,2013-02-06 04:15:00,
2013-02-05 23:30:00,28.0,27.3,29.94,NW,316,0.0,0.0,97,0.00,,,0.03,Wunderground v.1.15,2013-02-06 04:30:00,
2013-02-05 23:35:00,27.8,27.1,29.94,NW,316,0.0,0.0,97,0.00,,,0.03,Wunderground v.1.15,2013-02-06 04:35:00,
2013-02-05 23:50:00,27.5,26.8,29.94,NW,316,0.0,0.0,97,0.00,,,0.03,Wunderground v.1.15,2013-02-06 04:50:00,